createdAt,value
2023-05-14T00:02:19.543Z,76.37
2023-05-14T00:05:18.413Z,76.26
2023-05-14T00:08:17.161Z,76.29
2023-05-14T00:11:17.208Z,76.47
2023-05-14T00:14:15.940Z,76.77
2023-05-14T00:17:15.820Z,77.17
2023-05-14T00:20:15.570Z,77.24
2023-05-14T00:23:14.383Z,77.70
2023-05-14T00:26:13.189Z,77.35
2023-05-14T00:29:12.371Z,77.20
2023-05-14T00:32:19.543Z,77.65
2023-05-14T00:35:18.432Z,77.60
2023-05-14T00:38:17.189Z,78.15
2023-05-14T00:41:16.008Z,78.20
2023-05-14T00:44:16.110Z,78.13
2023-05-14T00:47:15.547Z,78.22
2023-05-14T00:50:14.317Z,78.53
2023-05-14T00:53:13.091Z,78.65
2023-05-14T00:56:11.919Z,78.75
2023-05-14T00:59:11.667Z,78.63
2023-05-14T01:02:11.433Z,78.36
2023-05-14T01:05:10.212Z,78.99
2023-05-14T01:08:12.239Z,79.09
2023-05-14T01:11:05.632Z,79.49
2023-05-14T01:13:59.553Z,79.70
2023-05-14T01:16:58.592Z,79.48
2023-05-14T01:20:00.005Z,79.89
2023-05-14T01:22:58.759Z,78.88
2023-05-14T01:25:58.615Z,79.26
2023-05-14T01:29:03.685Z,79.26
2023-05-14T01:32:04.255Z,79.35
2023-05-14T01:35:03.030Z,79.53
2023-05-14T01:38:01.924Z,79.15
2023-05-14T01:41:02.229Z,79.10
2023-05-14T01:44:01.645Z,79.12
2023-05-14T01:47:01.427Z,79.63
2023-05-14T01:50:00.263Z,79.45
2023-05-14T01:53:07.168Z,79.48
2023-05-14T01:56:06.005Z,79.45
2023-05-14T01:58:58.462Z,79.79
2023-05-14T02:02:05.710Z,79.80
2023-05-14T02:05:06.906Z,80.00
2023-05-14T02:08:07.260Z,79.98
2023-05-14T02:11:06.045Z,80.19
2023-05-14T02:14:05.486Z,79.83
2023-05-14T02:16:58.047Z,79.90
2023-05-14T02:19:57.774Z,80.31
2023-05-14T02:22:57.540Z,80.57
2023-05-14T02:25:57.421Z,80.37
2023-05-14T02:28:57.212Z,80.58
2023-05-14T02:31:59.738Z,80.59
2023-05-14T02:34:59.685Z,80.46
2023-05-14T02:37:59.540Z,80.31
2023-05-14T02:40:59.306Z,80.64
2023-05-14T02:43:59.798Z,80.78
2023-05-14T02:46:59.670Z,80.73
2023-05-14T02:49:59.549Z,80.59
2023-05-14T02:53:06.835Z,80.71
2023-05-14T02:56:06.028Z,81.14
2023-05-14T02:59:06.146Z,81.03
2023-05-14T03:02:05.775Z,80.81
2023-05-14T03:05:05.164Z,80.83
2023-05-14T03:08:06.012Z,80.99
2023-05-14T03:11:04.776Z,81.04
2023-05-14T03:13:55.416Z,81.40
2023-05-14T03:17:01.593Z,81.30
2023-05-14T03:20:00.999Z,81.36
2023-05-14T03:22:59.738Z,81.43
2023-05-14T03:25:59.557Z,81.38
2023-05-14T03:28:58.334Z,81.23
2023-05-14T03:32:00.450Z,80.64
2023-05-14T03:34:59.224Z,80.68
2023-05-14T03:37:58.058Z,80.57
2023-05-14T03:40:50.686Z,80.94
2023-05-14T03:43:49.506Z,80.70
2023-05-14T03:46:51.337Z,80.77
2023-05-14T03:49:43.360Z,80.76
2023-05-14T03:52:42.123Z,80.53
2023-05-14T03:55:41.066Z,80.12
2023-05-14T03:58:41.899Z,80.23
2023-05-14T04:01:40.743Z,80.21
2023-05-14T04:04:40.986Z,80.22
2023-05-14T04:07:39.857Z,80.43
2023-05-14T04:10:39.027Z,80.33
2023-05-14T04:13:33.215Z,80.54
2023-05-14T04:16:27.186Z,80.35
2023-05-14T04:19:26.028Z,80.67
2023-05-14T04:22:24.842Z,80.33
2023-05-14T04:25:25.548Z,80.34
2023-05-14T04:28:25.362Z,80.14
2023-05-14T04:31:24.162Z,80.08
2023-05-14T04:34:24.041Z,79.71
2023-05-14T04:37:22.822Z,79.48
2023-05-14T04:40:21.947Z,78.24
2023-05-14T04:43:29.663Z,77.83
2023-05-14T04:46:29.662Z,76.40
2023-05-14T04:49:28.496Z,74.99
2023-05-14T04:52:29.198Z,73.98
2023-05-14T04:55:36.385Z,72.77
2023-05-14T04:58:36.081Z,71.13
2023-05-14T05:01:34.896Z,70.08
2023-05-14T05:04:34.755Z,68.64
2023-05-14T05:07:35.381Z,67.49
2023-05-14T05:10:34.306Z,65.85
2023-05-14T05:13:33.111Z,64.16
2023-05-14T05:16:32.055Z,62.65
2023-05-14T05:19:43.104Z,61.66
2023-05-14T05:22:35.237Z,59.49
2023-05-14T05:25:34.040Z,57.62
2023-05-14T05:28:26.659Z,56.13
2023-05-14T05:31:25.986Z,54.64
2023-05-14T05:34:24.852Z,53.91
2023-05-14T05:37:24.659Z,51.97
2023-05-14T05:40:31.993Z,49.83
2023-05-14T05:43:30.805Z,48.51
2023-05-14T05:46:38.228Z,47.04
2023-05-14T05:49:37.051Z,44.37
2023-05-14T05:52:35.877Z,40.57
2023-05-14T05:55:35.804Z,38.58
2023-05-14T05:58:35.629Z,35.65
2023-05-14T06:01:38.477Z,33.59
2023-05-14T06:04:45.834Z,32.52
2023-05-14T06:07:45.647Z,31.15
2023-05-14T06:10:48.135Z,29.95
2023-05-14T06:13:47.428Z,30.58
2023-05-14T06:16:46.219Z,31.62
2023-05-14T06:19:45.077Z,32.91
2023-05-14T06:22:45.984Z,33.76
2023-05-14T06:25:44.829Z,35.01
2023-05-14T06:28:43.762Z,36.35
2023-05-14T06:31:43.653Z,37.26
2023-05-14T06:34:42.554Z,37.65
2023-05-14T06:37:49.875Z,37.56
2023-05-14T06:40:57.142Z,38.52
2023-05-14T06:43:57.483Z,39.05
2023-05-14T06:46:56.280Z,39.10
2023-05-14T06:49:55.157Z,39.45
2023-05-14T06:52:54.012Z,39.56
2023-05-14T06:55:52.859Z,39.93
2023-05-14T06:58:52.626Z,40.10
2023-05-14T07:01:50.903Z,40.47
2023-05-14T07:04:51.085Z,40.56
2023-05-14T07:07:50.993Z,40.60
2023-05-14T07:10:49.791Z,40.54
2023-05-14T07:13:48.678Z,40.35
2023-05-14T07:16:41.512Z,40.22
2023-05-14T07:19:40.424Z,40.24
2023-05-14T07:22:47.601Z,39.73
2023-05-14T07:25:46.389Z,40.41
2023-05-14T07:28:45.180Z,40.95
2023-05-14T07:31:37.792Z,40.05
2023-05-14T07:34:36.612Z,39.83
2023-05-14T07:37:35.900Z,39.70
2023-05-14T07:40:29.442Z,40.85
2023-05-14T07:43:28.353Z,41.84
2023-05-14T07:46:18.788Z,40.97
2023-05-14T07:49:18.608Z,40.72
2023-05-14T07:52:18.376Z,41.49
2023-05-14T07:55:17.197Z,41.47
2023-05-14T07:58:24.484Z,42.25
2023-05-14T08:01:23.270Z,42.49
2023-05-14T08:04:30.514Z,42.07
2023-05-14T08:07:38.393Z,41.68
2023-05-14T08:10:37.766Z,41.50
2023-05-14T08:13:45.046Z,42.47
2023-05-14T08:16:46.845Z,42.09
2023-05-14T08:19:46.703Z,42.83
2023-05-14T08:22:49.224Z,42.85
2023-05-14T08:25:48.521Z,43.65
2023-05-14T08:28:47.439Z,44.14
2023-05-14T08:31:46.267Z,44.09
2023-05-14T08:34:53.535Z,45.02
2023-05-14T08:37:56.410Z,44.85
2023-05-14T08:40:52.027Z,43.84
2023-05-14T08:43:54.387Z,44.67
2023-05-14T08:46:54.341Z,44.68
2023-05-14T08:49:45.851Z,44.75
2023-05-14T08:52:45.682Z,44.81
2023-05-14T08:55:51.374Z,45.04
2023-05-14T08:58:51.042Z,44.90
2023-05-14T09:01:51.584Z,45.05
2023-05-14T09:04:42.201Z,45.38
2023-05-14T09:07:41.331Z,45.31
2023-05-14T09:10:41.372Z,44.64
2023-05-14T09:13:48.704Z,43.75
2023-05-14T09:16:51.574Z,43.85
2023-05-14T09:19:58.903Z,43.96
2023-05-14T09:22:57.796Z,43.90
2023-05-14T09:26:05.668Z,44.10
2023-05-14T09:29:05.455Z,43.67
2023-05-14T09:32:05.394Z,43.36
2023-05-14T09:35:05.381Z,44.38
2023-05-14T09:38:04.211Z,43.68
2023-05-14T09:41:04.110Z,43.64
2023-05-14T09:44:11.369Z,43.55
2023-05-14T09:47:10.190Z,43.93
2023-05-14T09:50:09.119Z,44.05
2023-05-14T09:53:10.735Z,44.56
2023-05-14T09:56:10.603Z,45.15
2023-05-14T09:59:09.411Z,45.63
2023-05-14T10:02:08.269Z,44.96
2023-05-14T10:05:07.121Z,45.15
2023-05-14T10:08:09.440Z,44.48
2023-05-14T10:11:16.716Z,44.46
2023-05-14T10:14:19.428Z,44.24
2023-05-14T10:17:18.517Z,43.55
2023-05-14T10:20:18.933Z,43.80
2023-05-14T10:23:09.978Z,43.38
2023-05-14T10:26:08.798Z,43.37
2023-05-14T10:29:08.718Z,44.15
2023-05-14T10:32:09.648Z,43.76
2023-05-14T10:35:04.593Z,43.17
2023-05-14T10:38:04.112Z,43.57
2023-05-14T10:41:03.110Z,43.78
2023-05-14T10:44:01.909Z,43.77
2023-05-14T10:47:01.833Z,43.15
2023-05-14T10:50:04.724Z,42.41
2023-05-14T10:53:03.996Z,42.47
2023-05-14T10:56:11.174Z,42.56
2023-05-14T10:59:10.723Z,42.62
2023-05-14T11:02:17.631Z,42.33
2023-05-14T11:05:17.552Z,42.31
2023-05-14T11:08:01.314Z,42.76
2023-05-14T11:11:00.148Z,42.71
2023-05-14T11:13:58.939Z,42.94
2023-05-14T11:16:59.205Z,42.61
2023-05-14T11:19:58.004Z,42.07
2023-05-14T11:22:56.844Z,42.31
2023-05-14T11:25:57.073Z,42.45
2023-05-14T11:28:55.980Z,41.03
2023-05-14T11:31:54.803Z,41.22
2023-05-14T11:34:54.603Z,41.40
2023-05-14T11:37:55.281Z,41.97
2023-05-14T11:41:02.624Z,42.01
2023-05-14T11:44:09.840Z,42.04
2023-05-14T11:47:09.672Z,41.56
2023-05-14T11:50:11.217Z,41.08
2023-05-14T11:53:18.898Z,41.35
2023-05-14T11:56:18.651Z,40.64
2023-05-14T11:59:21.579Z,40.99
2023-05-14T12:02:21.629Z,40.84
2023-05-14T12:05:23.485Z,40.83
2023-05-14T12:08:23.018Z,40.23
2023-05-14T12:11:21.864Z,39.91
2023-05-14T12:14:20.770Z,39.96
2023-05-14T12:17:20.782Z,39.97
2023-05-14T12:20:15.519Z,39.68
2023-05-14T12:23:14.341Z,39.69
2023-05-14T12:26:14.392Z,39.46
2023-05-14T12:29:11.762Z,39.06
2023-05-14T12:32:11.592Z,39.42
2023-05-14T12:35:13.642Z,39.59
2023-05-14T12:38:05.924Z,39.34
2023-05-14T12:41:04.881Z,39.88
2023-05-14T12:44:12.117Z,39.24
2023-05-14T12:47:11.023Z,38.86
2023-05-14T12:50:12.049Z,39.62
2023-05-14T12:53:10.815Z,39.72
2023-05-14T12:56:12.827Z,39.02
2023-05-14T12:59:12.617Z,39.83
2023-05-14T13:02:11.411Z,39.57
2023-05-14T13:05:11.259Z,39.26
2023-05-14T13:08:10.153Z,39.22
2023-05-14T13:11:02.246Z,38.90
2023-05-14T13:14:09.582Z,39.28
2023-05-14T13:17:09.537Z,39.61
2023-05-14T13:20:08.494Z,39.26
2023-05-14T13:23:08.000Z,38.90
2023-05-14T13:26:06.816Z,39.09
2023-05-14T13:29:06.676Z,39.30
2023-05-14T13:32:13.959Z,39.23
2023-05-14T13:35:13.871Z,39.10
2023-05-14T13:38:13.753Z,39.30
2023-05-14T13:41:15.809Z,38.89
2023-05-14T13:44:15.654Z,39.16
2023-05-14T13:47:20.779Z,38.95
2023-05-14T13:50:28.017Z,39.16
2023-05-14T13:53:26.819Z,38.83
2023-05-14T13:56:26.693Z,38.95
2023-05-14T13:59:28.185Z,39.14
2023-05-14T14:02:35.661Z,38.83
2023-05-14T14:05:29.560Z,38.96
2023-05-14T14:08:30.110Z,38.96
2023-05-14T14:11:37.408Z,39.24
2023-05-14T14:14:36.256Z,39.07
2023-05-14T14:17:35.207Z,39.28
2023-05-14T14:20:35.257Z,39.51
2023-05-14T14:23:38.813Z,39.60
2023-05-14T14:26:38.631Z,39.35
2023-05-14T14:29:38.566Z,40.02
2023-05-14T14:32:38.575Z,40.22
2023-05-14T14:35:37.495Z,40.25
2023-05-14T14:38:44.871Z,39.96
2023-05-14T14:41:44.645Z,40.03
2023-05-14T14:44:44.506Z,39.84
2023-05-14T14:47:44.375Z,39.89
2023-05-14T14:50:44.367Z,40.01
2023-05-14T14:53:44.468Z,40.27
2023-05-14T14:56:43.659Z,40.57
2023-05-14T14:59:35.003Z,40.58
2023-05-14T15:02:33.853Z,40.81
2023-05-14T15:05:32.835Z,40.79
2023-05-14T15:08:30.655Z,40.96
2023-05-14T15:11:32.445Z,41.21
2023-05-14T15:14:31.322Z,41.75
2023-05-14T15:17:37.938Z,41.90
2023-05-14T15:20:37.360Z,42.31
2023-05-14T15:23:44.625Z,42.91
2023-05-14T15:26:44.578Z,43.09
2023-05-14T15:29:44.408Z,43.34
2023-05-14T15:32:44.448Z,43.46
2023-05-14T15:35:44.705Z,43.60
2023-05-14T15:38:37.308Z,43.75
2023-05-14T15:41:29.384Z,44.08
2023-05-14T15:44:38.847Z,44.06
2023-05-14T15:47:39.710Z,44.32
2023-05-14T15:50:48.960Z,44.68
2023-05-14T15:53:51.292Z,44.62
2023-05-14T15:56:51.366Z,45.13
2023-05-14T15:59:50.188Z,45.21
2023-05-14T16:02:49.089Z,45.47
2023-05-14T16:05:50.898Z,45.75
2023-05-14T16:08:49.827Z,45.70
2023-05-14T16:11:49.984Z,45.93
2023-05-14T16:14:51.161Z,46.27
2023-05-14T16:17:58.371Z,46.27
2023-05-14T16:20:49.222Z,46.50
2023-05-14T16:23:48.049Z,46.51
2023-05-14T16:26:46.931Z,46.56
2023-05-14T16:29:45.920Z,46.64
2023-05-14T16:32:49.805Z,47.09
2023-05-14T16:35:49.694Z,46.58
2023-05-14T16:39:06.135Z,47.05
2023-05-14T16:42:06.081Z,47.15
2023-05-14T16:45:06.103Z,47.35
2023-05-14T16:48:05.520Z,47.32
2023-05-14T16:51:04.523Z,47.75
2023-05-14T16:54:06.359Z,48.00
2023-05-14T16:57:07.413Z,48.32
2023-05-14T17:00:06.310Z,49.11
2023-05-14T17:03:13.641Z,48.97
2023-05-14T17:06:20.936Z,50.57
2023-05-14T17:09:20.245Z,51.33
2023-05-14T17:12:19.062Z,51.03
2023-05-14T17:15:26.468Z,51.01
2023-05-14T17:18:25.340Z,51.83
2023-05-14T17:21:32.683Z,53.10
2023-05-14T17:24:32.497Z,53.43
2023-05-14T17:27:39.561Z,53.76
2023-05-14T17:30:46.906Z,54.39
2023-05-14T17:33:46.725Z,55.73
2023-05-14T17:36:45.518Z,56.73
2023-05-14T17:39:52.906Z,57.31
2023-05-14T17:42:52.685Z,58.01
2023-05-14T17:45:54.322Z,58.62
2023-05-14T17:49:01.642Z,59.23
2023-05-14T17:52:02.206Z,59.93
2023-05-14T17:55:10.532Z,59.48
2023-05-14T17:58:09.479Z,57.38
2023-05-14T18:01:08.312Z,56.56
2023-05-14T18:04:15.761Z,56.35
2023-05-14T18:07:15.670Z,57.82
2023-05-14T18:10:16.006Z,59.10
2023-05-14T18:13:14.793Z,60.88
2023-05-14T18:16:14.632Z,61.36
2023-05-14T18:19:22.081Z,62.20
2023-05-14T18:22:20.888Z,63.51
2023-05-14T18:25:28.135Z,64.22
2023-05-14T18:28:26.967Z,64.77
2023-05-14T18:31:26.404Z,65.30
2023-05-14T18:34:25.213Z,65.45
2023-05-14T18:37:24.054Z,66.22
2023-05-14T18:40:22.983Z,67.04
2023-05-14T18:43:22.860Z,66.93
2023-05-14T18:46:23.841Z,67.49
2023-05-14T18:49:23.959Z,67.94
2023-05-14T18:52:22.826Z,68.48
2023-05-14T18:55:23.751Z,68.98
2023-05-14T18:58:31.047Z,69.33
2023-05-14T19:01:38.403Z,68.86
2023-05-14T19:04:52.442Z,68.96
2023-05-14T19:07:51.941Z,69.59
2023-05-14T19:10:51.202Z,70.08
2023-05-14T19:13:49.973Z,70.17
2023-05-14T19:16:57.243Z,70.82
2023-05-14T19:19:59.040Z,71.31
2023-05-14T19:22:56.616Z,69.42
2023-05-14T19:25:55.403Z,69.20
2023-05-14T19:28:54.975Z,69.15
2023-05-14T19:31:47.075Z,68.83
2023-05-14T19:34:45.974Z,69.64
2023-05-14T19:37:44.830Z,69.56
2023-05-14T19:40:45.254Z,69.29
2023-05-14T19:43:39.332Z,70.32
2023-05-14T19:46:38.904Z,70.78
2023-05-14T19:49:38.661Z,71.34
2023-05-14T19:52:37.614Z,71.66
2023-05-14T19:55:37.508Z,71.94
2023-05-14T19:58:44.793Z,71.96
2023-05-14T20:01:44.646Z,72.25
2023-05-14T20:04:45.291Z,72.41
2023-05-14T20:07:44.674Z,72.43
2023-05-14T20:10:43.496Z,72.79
2023-05-14T20:13:48.178Z,72.97
2023-05-14T20:16:47.201Z,73.15
2023-05-14T20:19:46.868Z,73.48
2023-05-14T20:22:47.033Z,73.57
2023-05-14T20:25:45.831Z,74.10
2023-05-14T20:28:53.086Z,74.37
2023-05-14T20:31:51.869Z,74.82
2023-05-14T20:34:52.883Z,74.39
2023-05-14T20:37:59.762Z,74.16
2023-05-14T20:41:00.149Z,74.78
2023-05-14T20:43:59.008Z,75.01
2023-05-14T20:46:59.362Z,74.55
2023-05-14T20:50:06.663Z,74.60
2023-05-14T20:53:05.523Z,74.90
2023-05-14T20:56:12.780Z,75.32
2023-05-14T20:59:12.570Z,75.74
2023-05-14T21:02:11.457Z,75.74
2023-05-14T21:05:10.898Z,75.82
2023-05-14T21:08:10.735Z,75.43
2023-05-14T21:11:09.499Z,75.56
2023-05-14T21:14:09.823Z,75.57
2023-05-14T21:17:09.663Z,75.61
2023-05-14T21:20:09.569Z,75.63
2023-05-14T21:23:08.429Z,75.70
2023-05-14T21:26:07.161Z,75.52
2023-05-14T21:29:05.912Z,75.62
2023-05-14T21:32:05.804Z,75.65
2023-05-14T21:35:06.247Z,75.87
2023-05-14T21:38:05.034Z,75.86
2023-05-14T21:41:05.320Z,76.07
2023-05-14T21:44:04.050Z,76.05
2023-05-14T21:47:02.751Z,76.06
2023-05-14T21:50:01.577Z,75.99
2023-05-14T21:53:00.329Z,76.32
2023-05-14T21:55:59.059Z,76.04
2023-05-14T21:59:06.170Z,76.10
2023-05-14T22:02:07.717Z,76.04
2023-05-14T22:05:11.829Z,76.06
2023-05-14T22:08:19.056Z,76.10
2023-05-14T22:11:17.822Z,76.25
2023-05-14T22:14:17.546Z,76.34
2023-05-14T22:17:19.321Z,76.29
2023-05-14T22:20:18.118Z,76.35
2023-05-14T22:23:16.865Z,76.35
2023-05-14T22:26:17.212Z,76.62
2023-05-14T22:29:16.954Z,76.79
2023-05-14T22:32:15.959Z,76.81
2023-05-14T22:35:17.630Z,76.99
2023-05-14T22:38:16.827Z,77.29
2023-05-14T22:41:17.688Z,77.40
2023-05-14T22:44:20.177Z,77.34
2023-05-14T22:47:18.863Z,77.22
2023-05-14T22:50:18.670Z,77.47
2023-05-14T22:53:18.448Z,77.32
2023-05-14T22:56:20.468Z,77.62
2023-05-14T22:59:23.706Z,77.79
2023-05-14T23:02:22.854Z,77.59
2023-05-14T23:05:22.890Z,77.78
2023-05-14T23:08:21.903Z,77.78
2023-05-14T23:11:27.928Z,77.94
2023-05-14T23:14:28.155Z,78.18
2023-05-14T23:17:26.954Z,78.05
2023-05-14T23:20:26.707Z,78.51
2023-05-14T23:23:28.091Z,78.57
2023-05-14T23:26:27.201Z,78.53
2023-05-14T23:29:27.740Z,78.84
2023-05-14T23:32:27.533Z,79.50
2023-05-14T23:35:26.872Z,79.57
2023-05-14T23:38:27.520Z,79.70
2023-05-14T23:41:26.240Z,79.99
2023-05-14T23:44:25.006Z,80.26
2023-05-14T23:47:17.710Z,80.36
2023-05-14T23:50:17.370Z,80.50
2023-05-14T23:53:24.505Z,80.88
2023-05-14T23:56:23.256Z,81.05
2023-05-14T23:59:16.129Z,81.07
